Time;durP1;ratioP1;P1;durP2;ratioP2;P2;SDS_P1;SDS_P2;PMS_P1;PMS_P2;Temp;Humidity;BMP_temperature;BMP_pressure;BME280_temperature;BME280_humidity;BME280_pressure;Samples;Min_cycle;Max_cycle;Signal;HPM_P1;HPM_P2
2021/12/26 00:00:39;;;;;;;;;14.00;12.33;;;;;20.75;46.06;100624.69;109340;1280;21847;-78
2021/12/26 00:03:06;;;;;;;;;13.00;12.00;;;;;20.72;45.91;100616.88;109383;1280;19779;-78
2021/12/26 00:05:32;;;;;;;;;13.50;12.00;;;;;20.74;46.03;100617.31;109348;1279;21916;-78
2021/12/26 00:07:58;;;;;;;;;17.00;14.00;;;;;20.75;45.84;100622.34;109355;1279;22460;-78
2021/12/26 00:10:24;;;;;;;;;16.00;12.00;;;;;20.74;45.87;100625.71;109348;1280;19131;-78
2021/12/26 00:12:50;;;;;;;;;13.00;12.00;;;;;20.73;45.95;100618.37;109320;1279;20030;-78
2021/12/26 00:15:15;;;;;;;;;12.00;10.00;;;;;20.74;46.00;100621.32;109351;1279;20675;-78
2021/12/26 00:17:41;;;;;;;;;12.00;10.00;;;;;20.76;45.86;100624.73;109367;1280;19179;-78
2021/12/26 00:20:07;;;;;;;;;13.00;12.00;;;;;20.74;45.74;100621.53;109261;1273;136278;-78
2021/12/26 00:22:33;;;;;;;;;12.50;12.00;;;;;20.73;45.73;100623.10;109314;1280;22818;-79
2021/12/26 00:24:59;;;;;;;;;13.00;12.00;;;;;20.73;45.76;100625.45;109332;1280;19049;-78
2021/12/26 00:27:25;;;;;;;;;12.50;12.50;;;;;20.70;45.65;100622.89;109350;1279;20158;-79
2021/12/26 00:29:50;;;;;;;;;14.50;12.00;;;;;20.72;45.64;100624.09;109373;1279;23172;-78
2021/12/26 00:32:16;;;;;;;;;10.00;10.00;;;;;20.73;45.78;100631.86;109301;1280;24108;-78
2021/12/26 00:34:42;;;;;;;;;14.00;12.00;;;;;20.71;45.59;100630.33;109335;1279;19796;-77
2021/12/26 00:37:08;;;;;;;;;17.67;16.00;;;;;20.71;45.68;100638.23;109285;1278;22990;-78
2021/12/26 00:39:35;;;;;;;;;14.67;13.00;;;;;20.71;45.54;100637.48;109315;1280;19396;-78
2021/12/26 00:42:05;;;;;;;;;15.67;13.00;;;;;20.71;45.47;100640.72;109329;1279;20407;-78
2021/12/26 00:44:32;;;;;;;;;13.50;11.00;;;;;20.72;45.42;100641.70;109316;1280;22302;-78
2021/12/26 00:46:58;;;;;;;;;15.00;13.33;;;;;20.72;45.17;100642.98;109283;1280;24046;-78
2021/12/26 00:49:24;;;;;;;;;14.50;13.00;;;;;20.73;45.35;100645.23;109315;1280;19600;-78
2021/12/26 00:51:50;;;;;;;;;13.00;13.00;;;;;20.70;45.49;100641.47;109323;1279;20885;-79
2021/12/26 00:54:15;;;;;;;;;13.00;12.00;;;;;20.72;45.18;100642.58;109356;1278;23895;-79
2021/12/26 00:56:41;;;;;;;;;14.00;13.00;;;;;20.71;45.21;100638.98;109294;1280;20015;-78
2021/12/26 00:59:07;;;;;;;;;13.00;12.00;;;;;20.70;45.23;100639.63;109270;1280;21205;-78
2021/12/26 01:01:34;;;;;;;;;12.00;10.00;;;;;20.70;45.21;100641.58;109348;1280;20129;-78
2021/12/26 01:03:59;;;;;;;;;12.00;12.00;;;;;20.70;45.13;100641.20;109238;1280;22772;-78
2021/12/26 01:06:27;;;;;;;;;13.00;12.00;;;;;20.72;45.16;100644.70;109336;1280;20327;-79
2021/12/26 01:08:53;;;;;;;;;16.00;13.50;;;;;20.72;45.09;100641.97;109324;1280;22701;-78
2021/12/26 01:11:23;;;;;;;;;13.50;12.00;;;;;20.69;45.07;100645.92;109300;1280;19363;-78
2021/12/26 01:13:49;;;;;;;;;14.00;12.00;;;;;20.69;44.98;100640.17;109337;1280;20313;-78
2021/12/26 01:16:15;;;;;;;;;14.00;12.00;;;;;20.69;45.02;100646.10;109335;1279;20709;-79
2021/12/26 01:18:41;;;;;;;;;13.00;12.00;;;;;20.69;44.99;100646.27;109346;1280;19479;-78
2021/12/26 01:21:16;;;;;;;;;14.00;13.00;;;;;20.68;44.77;100647.80;109369;1280;22342;-79
2021/12/26 01:23:42;;;;;;;;;15.50;14.50;;;;;20.70;44.66;100650.35;109307;1280;19397;-78
2021/12/26 01:26:08;;;;;;;;;13.00;12.00;;;;;20.68;44.83;100650.88;109346;1280;22463;-79
2021/12/26 01:28:34;;;;;;;;;13.00;12.00;;;;;20.68;44.76;100653.26;109317;1280;20163;-79
2021/12/26 01:31:00;;;;;;;;;13.33;12.33;;;;;20.68;44.81;100650.16;109342;1279;21923;-78
2021/12/26 01:33:26;;;;;;;;;16.50;12.50;;;;;20.68;44.69;100650.39;109315;1280;23894;-78
2021/12/26 01:35:52;;;;;;;;;13.00;12.00;;;;;20.68;44.61;100649.64;109319;1280;22788;-79
2021/12/26 01:38:18;;;;;;;;;15.00;13.00;;;;;20.66;44.85;100643.95;109232;1280;20079;-79
2021/12/26 01:40:45;;;;;;;;;12.50;11.00;;;;;20.65;44.74;100647.09;109300;1280;19288;-78
2021/12/26 01:43:10;;;;;;;;;12.00;10.00;;;;;20.66;44.52;100642.62;109311;1280;20427;-78
2021/12/26 01:45:36;;;;;;;;;12.00;10.00;;;;;20.66;44.54;100646.60;109309;1279;19450;-79
2021/12/26 01:48:02;;;;;;;;;14.00;12.00;;;;;20.64;44.49;100649.88;109349;1280;19868;-79
2021/12/26 01:50:28;;;;;;;;;12.00;10.00;;;;;20.66;44.67;100651.52;109289;1280;22610;-79
2021/12/26 01:52:54;;;;;;;;;11.00;10.00;;;;;20.65;44.45;100651.44;109363;1279;19123;-78
2021/12/26 01:55:25;;;;;;;;;12.00;11.00;;;;;20.65;44.49;100647.15;109327;1279;19944;-78
2021/12/26 01:57:51;;;;;;;;;10.67;9.67;;;;;20.65;44.44;100648.96;109317;1280;20839;-79
2021/12/26 02:00:17;;;;;;;;;10.00;10.00;;;;;20.63;44.44;100647.55;109304;1280;19273;-79
2021/12/26 02:02:43;;;;;;;;;12.00;10.00;;;;;20.62;44.53;100645.96;109291;1280;21906;-76
2021/12/26 02:05:09;;;;;;;;;12.00;12.00;;;;;20.64;44.26;100648.08;109360;1280;23143;-78
2021/12/26 02:07:35;;;;;;;;;12.00;10.00;;;;;20.64;44.11;100648.45;109285;1280;19182;-78
2021/12/26 02:10:00;;;;;;;;;12.00;10.00;;;;;20.64;44.36;100649.20;109320;1279;19711;-78
2021/12/26 02:12:26;;;;;;;;;13.00;12.00;;;;;20.63;44.28;100646.05;109309;1279;20086;-79
2021/12/26 02:14:52;;;;;;;;;11.00;11.00;;;;;20.64;44.01;100645.27;109319;1280;22792;-78
2021/12/26 02:17:18;;;;;;;;;14.00;12.00;;;;;20.63;44.21;100647.66;109305;1280;22798;-78
2021/12/26 02:19:44;;;;;;;;;13.00;12.00;;;;;20.63;44.19;100648.92;109322;1280;21755;-78
2021/12/26 02:22:13;;;;;;;;;12.67;11.33;;;;;20.63;44.15;100645.52;109294;1280;22390;-80
2021/12/26 02:25:07;;;;;;;;;16.00;13.00;;;;;20.64;43.99;100645.26;109275;1280;22955;-77
2021/12/26 02:27:32;;;;;;;;;12.00;10.00;;;;;20.63;43.83;100651.89;109403;1279;22687;-79
2021/12/26 02:29:58;;;;;;;;;12.50;10.50;;;;;20.63;44.12;100650.55;109304;1280;22916;-78
2021/12/26 02:32:24;;;;;;;;;12.00;10.00;;;;;20.63;43.85;100654.81;109307;1280;19391;-78
2021/12/26 02:34:50;;;;;;;;;10.50;10.00;;;;;20.61;44.03;100653.02;109309;1280;21950;-78
2021/12/26 02:37:16;;;;;;;;;10.00;10.00;;;;;20.62;44.02;100653.47;109311;1280;21960;-79
2021/12/26 02:39:42;;;;;;;;;9.50;9.00;;;;;20.61;43.92;100652.27;109277;1279;22501;-79
2021/12/26 02:42:07;;;;;;;;;12.50;12.00;;;;;20.59;44.02;100657.06;109294;1280;22203;-79
2021/12/26 02:44:33;;;;;;;;;10.00;9.50;;;;;20.60;43.80;100654.80;109286;1279;21265;-78
2021/12/26 02:46:59;;;;;;;;;10.00;10.00;;;;;20.59;43.84;100655.23;109333;1280;23093;-79
2021/12/26 02:49:25;;;;;;;;;13.00;10.00;;;;;20.61;43.76;100659.98;109307;1280;21609;-78
2021/12/26 02:51:51;;;;;;;;;12.50;12.00;;;;;20.59;43.62;100654.34;109336;1279;19225;-78
2021/12/26 02:54:17;;;;;;;;;13.00;12.00;;;;;20.61;43.72;100654.69;109335;1280;19454;-78
2021/12/26 02:56:42;;;;;;;;;12.00;10.00;;;;;20.60;43.59;100656.16;109307;1280;20263;-77
2021/12/26 02:59:08;;;;;;;;;15.00;13.00;;;;;20.59;43.73;100655.21;109299;1280;19305;-78
2021/12/26 03:01:34;;;;;;;;;14.00;12.00;;;;;20.59;43.73;100655.97;109352;1280;19571;-79
2021/12/26 03:04:04;;;;;;;;;14.00;12.00;;;;;20.59;43.58;100656.00;109309;1280;23908;-78
2021/12/26 03:06:36;;;;;;;;;16.00;15.00;;;;;20.59;43.55;100654.38;109352;1280;20712;-78
2021/12/26 03:09:03;;;;;;;;;13.67;12.00;;;;;20.57;43.60;100653.32;109262;1280;24576;-78
2021/12/26 03:11:29;;;;;;;;;9.00;9.00;;;;;20.59;43.55;100653.92;109325;1280;22212;-78
2021/12/26 03:13:55;;;;;;;;;13.00;13.00;;;;;20.59;43.70;100644.73;109338;1280;19252;-79
2021/12/26 03:16:20;;;;;;;;;9.00;9.00;;;;;20.58;43.50;100643.77;109358;1280;19391;-79
2021/12/26 03:18:47;;;;;;;;;13.00;11.00;;;;;20.59;43.51;100645.62;109317;1280;21675;-78
2021/12/26 03:21:13;;;;;;;;;12.00;10.50;;;;;20.58;43.54;100649.79;109351;1280;19575;-79
2021/12/26 03:23:39;;;;;;;;;11.00;10.00;;;;;20.57;43.53;100651.09;109315;1280;19433;-79
2021/12/26 03:26:04;;;;;;;;;11.50;10.50;;;;;20.56;43.55;100653.96;109362;1279;20254;-79
2021/12/26 03:28:30;;;;;;;;;10.50;9.00;;;;;20.57;43.19;100660.05;109348;1279;22718;-79
2021/12/26 03:30:56;;;;;;;;;13.50;11.50;;;;;20.56;43.34;100658.78;109399;1280;22033;-78
2021/12/26 03:33:22;;;;;;;;;15.50;12.50;;;;;20.55;43.39;100657.48;109359;1280;20031;-79
2021/12/26 03:35:48;;;;;;;;;10.00;9.00;;;;;20.55;43.39;100656.63;109366;1279;19191;-79
2021/12/26 03:38:14;;;;;;;;;13.00;12.00;;;;;20.53;43.39;100654.60;109303;1280;22525;-78
2021/12/26 03:40:40;;;;;;;;;9.33;9.00;;;;;20.52;43.48;100658.03;109316;1280;21112;-77
2021/12/26 03:43:06;;;;;;;;;10.00;10.00;;;;;20.53;43.20;100660.48;109323;1280;19150;-78
2021/12/26 03:45:32;;;;;;;;;11.33;10.33;;;;;20.53;43.27;100664.02;109309;1280;22315;-79
2021/12/26 03:47:58;;;;;;;;;9.00;9.00;;;;;20.54;43.38;100661.64;109350;1280;20856;-78
2021/12/26 03:50:24;;;;;;;;;10.00;9.00;;;;;20.53;43.07;100661.00;109336;1279;19328;-79
2021/12/26 03:52:50;;;;;;;;;10.00;9.00;;;;;20.54;43.11;100655.23;109326;1280;19750;-79
2021/12/26 03:55:16;;;;;;;;;12.00;12.00;;;;;20.55;43.03;100656.80;109327;1279;21936;-79
2021/12/26 03:57:42;;;;;;;;;9.50;9.00;;;;;20.54;43.03;100657.41;109344;1279;22434;-79
2021/12/26 04:00:07;;;;;;;;;16.00;10.50;;;;;20.53;42.90;100660.20;109392;1280;19384;-79
2021/12/26 04:02:33;;;;;;;;;12.00;9.00;;;;;20.53;42.83;100663.34;109325;1280;20811;-79
2021/12/26 04:04:59;;;;;;;;;12.00;10.00;;;;;20.53;42.94;100663.75;109249;1280;19200;-78
2021/12/26 04:07:25;;;;;;;;;11.00;10.00;;;;;20.52;42.94;100663.98;109327;1280;19979;-78
2021/12/26 04:09:51;;;;;;;;;12.00;11.00;;;;;20.56;42.92;100671.77;109318;1280;23900;-79
2021/12/26 04:12:17;;;;;;;;;10.50;10.00;;;;;20.53;42.84;100671.31;109356;1279;20881;-78
2021/12/26 04:14:43;;;;;;;;;12.50;12.00;;;;;20.53;42.84;100670.39;109345;1280;19669;-78
2021/12/26 04:17:08;;;;;;;;;11.50;11.50;;;;;20.53;42.90;100668.23;109331;1279;21263;-79
2021/12/26 04:19:34;;;;;;;;;10.00;10.00;;;;;20.53;42.67;100669.14;109333;1280;19236;-78
2021/12/26 04:22:02;;;;;;;;;10.00;9.00;;;;;20.52;42.85;100670.12;109320;1280;19794;-78
2021/12/26 04:24:29;;;;;;;;;15.00;10.00;;;;;20.52;42.69;100674.91;109368;1280;22961;-79
2021/12/26 04:26:55;;;;;;;;;13.00;12.67;;;;;20.51;42.87;100675.12;109320;1280;20337;-79
2021/12/26 04:29:21;;;;;;;;;12.00;9.50;;;;;20.51;42.84;100676.03;109317;1280;19369;-79
2021/12/26 04:31:47;;;;;;;;;13.00;12.00;;;;;20.50;42.81;100674.23;109288;1279;20292;-79
2021/12/26 04:34:13;;;;;;;;;12.00;12.00;;;;;20.48;42.80;100674.80;109326;1280;19164;-79
2021/12/26 04:36:39;;;;;;;;;12.00;10.00;;;;;20.47;42.80;100673.23;109297;1280;23595;-76
2021/12/26 04:39:04;;;;;;;;;13.50;9.50;;;;;20.48;42.86;100683.81;109335;1280;20824;-78
2021/12/26 04:41:30;;;;;;;;;13.00;10.50;;;;;20.48;42.74;100689.85;109331;1280;19715;-78
2021/12/26 04:43:56;;;;;;;;;14.00;13.00;;;;;20.50;42.66;100689.83;109361;1280;19610;-79
2021/12/26 04:46:22;;;;;;;;;14.00;12.00;;;;;20.48;42.56;100683.71;109324;1279;20746;-79
2021/12/26 04:48:48;;;;;;;;;13.00;12.50;;;;;20.48;42.62;100680.28;109323;1279;22806;-79
2021/12/26 04:51:14;;;;;;;;;9.00;9.00;;;;;20.49;42.58;100682.68;109351;1280;19419;-79
2021/12/26 04:53:40;;;;;;;;;12.00;12.00;;;;;20.46;42.69;100682.31;109401;1279;20866;-79
2021/12/26 04:56:06;;;;;;;;;10.00;9.00;;;;;20.46;42.54;100689.69;109281;1279;19270;-79
2021/12/26 04:58:32;;;;;;;;;13.00;10.00;;;;;20.47;42.55;100695.98;109297;1279;20724;-79
2021/12/26 05:00:57;;;;;;;;;12.50;10.00;;;;;20.49;42.62;100695.61;109342;1280;22366;-79
2021/12/26 05:03:23;;;;;;;;;15.00;13.00;;;;;20.50;42.45;100702.35;109319;1280;22749;-79
2021/12/26 05:05:49;;;;;;;;;13.00;12.00;;;;;20.49;42.27;100703.68;109371;1280;19339;-79
2021/12/26 05:08:15;;;;;;;;;13.00;12.00;;;;;20.48;42.29;100705.08;109322;1279;20149;-79
2021/12/26 05:10:41;;;;;;;;;9.00;9.00;;;;;20.48;42.40;100709.52;109347;1280;19150;-78
2021/12/26 05:13:07;;;;;;;;;9.50;9.00;;;;;20.47;42.36;100715.00;109363;1280;19304;-79
2021/12/26 05:15:32;;;;;;;;;12.50;10.50;;;;;20.46;42.26;100719.73;109308;1279;21556;-79
2021/12/26 05:17:58;;;;;;;;;15.00;11.00;;;;;20.45;42.47;100717.81;109334;1279;19091;-79
2021/12/26 05:20:24;;;;;;;;;10.00;10.00;;;;;20.45;42.43;100718.58;109342;1280;19903;-79
2021/12/26 05:22:50;;;;;;;;;9.00;9.00;;;;;20.45;42.39;100718.86;109314;1279;23419;-79
2021/12/26 05:25:16;;;;;;;;;13.00;13.00;;;;;20.43;42.12;100715.83;109354;1280;19659;-79
2021/12/26 05:27:42;;;;;;;;;10.00;9.00;;;;;20.43;42.23;100713.98;109398;1279;20111;-79
2021/12/26 05:30:08;;;;;;;;;16.00;13.00;;;;;20.43;42.38;100716.78;109320;1280;20562;-79
2021/12/26 05:32:33;;;;;;;;;13.00;10.50;;;;;20.39;42.11;100712.48;109309;1280;22342;-79
2021/12/26 05:34:59;;;;;;;;;12.00;12.00;;;;;20.41;42.18;100712.94;109275;1280;22332;-79
2021/12/26 05:37:25;;;;;;;;;12.50;10.50;;;;;20.43;42.30;100713.10;109331;1280;20200;-79
2021/12/26 05:39:51;;;;;;;;;12.00;12.00;;;;;20.41;42.00;100709.36;109324;1280;22696;-79
2021/12/26 05:42:17;;;;;;;;;13.00;12.00;;;;;20.42;42.15;100714.12;109353;1280;22658;-79
2021/12/26 05:44:43;;;;;;;;;12.00;12.00;;;;;20.44;42.11;100718.43;109343;1280;21574;-79
2021/12/26 05:47:08;;;;;;;;;12.00;11.00;;;;;20.43;41.95;100720.31;109306;1280;19143;-79
2021/12/26 05:49:34;;;;;;;;;12.00;11.00;;;;;20.44;41.98;100715.54;109334;1280;19394;-79
2021/12/26 05:52:00;;;;;;;;;14.00;11.50;;;;;20.42;42.03;100712.34;109328;1280;20725;-77
2021/12/26 05:54:26;;;;;;;;;9.50;9.50;;;;;20.45;41.78;100716.34;109322;1279;19147;-77
2021/12/26 05:56:52;;;;;;;;;15.50;10.00;;;;;20.45;41.90;100717.98;109285;1280;23437;-78
2021/12/26 05:59:18;;;;;;;;;10.50;9.00;;;;;20.44;41.85;100723.50;109369;1280;23990;-79
2021/12/26 06:01:43;;;;;;;;;12.00;10.00;;;;;20.45;41.76;100724.56;109346;1279;23056;-78
2021/12/26 06:04:09;;;;;;;;;17.00;15.00;;;;;20.45;41.72;100725.42;109298;1280;19351;-78
2021/12/26 06:06:35;;;;;;;;;13.00;10.00;;;;;20.45;41.65;100724.91;109364;1280;20570;-78
2021/12/26 06:09:03;;;;;;;;;9.00;9.00;;;;;20.44;41.83;100728.61;109361;1280;19272;-79
2021/12/26 06:11:29;;;;;;;;;11.67;9.33;;;;;20.44;41.81;100723.13;109286;1280;20207;-80
2021/12/26 06:13:55;;;;;;;;;10.00;8.00;;;;;20.44;41.73;100724.74;109322;1280;20287;-80
2021/12/26 06:16:20;;;;;;;;;12.00;10.50;;;;;20.44;41.61;100723.69;109296;1280;19142;-79
2021/12/26 06:18:46;;;;;;;;;15.00;12.00;;;;;20.43;41.78;100720.59;109303;1280;19646;-78
2021/12/26 06:21:12;;;;;;;;;14.00;12.00;;;;;20.44;41.61;100725.66;109314;1280;23535;-79
2021/12/26 06:23:38;;;;;;;;;10.50;10.00;;;;;20.41;41.83;100723.83;109336;1280;23906;-79
2021/12/26 06:26:04;;;;;;;;;12.00;11.00;;;;;20.43;42.03;100724.40;109357;1279;21092;-79
2021/12/26 06:28:30;;;;;;;;;14.00;12.00;;;;;20.46;42.09;100721.11;109344;1279;20150;-79
2021/12/26 06:30:55;;;;;;;;;9.00;9.00;;;;;20.49;42.13;100721.14;109328;1280;19131;-79
2021/12/26 06:33:21;;;;;;;;;12.00;12.00;;;;;20.51;41.81;100719.60;109343;1279;22299;-80
2021/12/26 06:35:49;;;;;;;;;15.00;12.00;;;;;20.54;41.77;100720.20;109314;1279;21572;-80
2021/12/26 06:38:15;;;;;;;;;13.00;12.00;;;;;20.51;41.82;100717.67;109314;1280;22834;-80
2021/12/26 06:40:41;;;;;;;;;12.00;12.00;;;;;20.49;42.06;100717.02;109343;1279;20200;-79
2021/12/26 06:43:08;;;;;;;;;14.00;11.50;;;;;20.48;42.08;100718.20;109340;1280;24382;-80
2021/12/26 06:45:33;;;;;;;;;12.00;10.33;;;;;20.49;42.12;100713.01;109300;1280;20933;-80
2021/12/26 06:48:02;;;;;;;;;12.00;10.00;;;;;20.53;42.16;100715.08;109317;1279;19408;-80
2021/12/26 06:50:28;;;;;;;;;13.00;12.00;;;;;20.58;42.17;100719.75;109285;1280;20371;-80
2021/12/26 06:52:54;;;;;;;;;17.00;12.50;;;;;20.61;42.19;100717.77;109328;1280;19208;-80
2021/12/26 06:55:20;;;;;;;;;16.00;12.00;;;;;20.62;42.50;100723.09;109344;1279;19360;-79
2021/12/26 06:57:46;;;;;;;;;10.33;9.33;;;;;20.61;42.67;100728.31;109271;1279;20393;-80
2021/12/26 07:00:12;;;;;;;;;10.00;9.00;;;;;20.60;42.64;100731.36;109328;1279;19137;-80
2021/12/26 07:02:37;;;;;;;;;9.50;9.00;;;;;20.62;42.72;100737.88;109322;1280;24152;-79
2021/12/26 07:05:03;;;;;;;;;15.00;12.00;;;;;20.63;42.85;100739.54;109342;1279;20195;-79
2021/12/26 07:07:29;;;;;;;;;12.00;10.00;;;;;20.66;43.13;100744.17;109362;1280;19273;-78
2021/12/26 07:09:55;;;;;;;;;13.00;12.00;;;;;20.67;43.21;100738.88;109316;1280;21842;-78
2021/12/26 07:12:21;;;;;;;;;13.00;10.00;;;;;20.70;43.49;100739.07;109363;1279;20834;-79
2021/12/26 07:14:47;;;;;;;;;10.00;10.00;;;;;20.78;43.24;100741.25;109339;1279;19168;-76
2021/12/26 07:17:13;;;;;;;;;11.50;10.00;;;;;20.76;43.53;100741.64;109349;1280;19985;-79
2021/12/26 07:19:38;;;;;;;;;10.00;9.00;;;;;20.78;43.63;100747.59;109358;1280;20111;-80
2021/12/26 07:22:04;;;;;;;;;11.00;9.00;;;;;20.76;43.65;100753.42;109359;1280;19268;-80
2021/12/26 07:24:31;;;;;;;;;12.00;10.67;;;;;20.78;43.32;100759.64;109315;1280;19563;-79
2021/12/26 07:26:57;;;;;;;;;13.50;12.50;;;;;20.74;43.51;100760.11;109323;1280;23993;-79
2021/12/26 07:29:22;;;;;;;;;9.50;8.50;;;;;20.72;43.20;100764.67;109268;1280;19276;-79
2021/12/26 07:31:48;;;;;;;;;13.00;12.00;;;;;20.70;43.62;100760.11;109358;1279;19388;-78
2021/12/26 07:34:14;;;;;;;;;11.50;9.50;;;;;20.70;43.80;100763.78;109357;1279;20739;-79
2021/12/26 07:36:40;;;;;;;;;12.00;11.50;;;;;20.71;43.91;100768.17;109356;1280;19310;-76
2021/12/26 07:39:06;;;;;;;;;15.00;12.00;;;;;20.76;44.08;100775.20;109334;1280;19384;-74
2021/12/26 07:41:32;;;;;;;;;13.00;12.50;;;;;20.80;44.06;100783.30;109321;1279;20098;-76
2021/12/26 07:43:58;;;;;;;;;10.50;9.00;;;;;20.80;44.18;100780.95;109328;1280;19052;-78
2021/12/26 07:46:24;;;;;;;;;11.50;10.00;;;;;20.84;45.62;100784.84;109357;1280;22780;-79
2021/12/26 07:48:49;;;;;;;;;13.67;12.00;;;;;20.89;47.16;100783.59;109313;1280;20278;-80
2021/12/26 07:51:15;;;;;;;;;14.00;12.00;;;;;20.96;47.47;100780.54;109396;1280;19284;-79
2021/12/26 07:53:41;;;;;;;;;12.00;10.00;;;;;21.00;48.90;100779.89;109307;1280;23887;-80
2021/12/26 07:56:07;;;;;;;;;9.00;9.00;;;;;21.03;50.47;100781.77;109320;1279;23811;-81
2021/12/26 07:58:34;;;;;;;;;12.00;10.00;;;;;21.01;50.42;100780.48;109364;1280;19716;-80
2021/12/26 08:01:00;;;;;;;;;12.00;12.00;;;;;21.01;49.83;100785.08;109287;1280;21996;-78
2021/12/26 08:03:26;;;;;;;;;10.67;10.67;;;;;21.00;48.90;100782.88;109298;1279;20966;-78
2021/12/26 08:05:52;;;;;;;;;12.50;10.00;;;;;20.94;49.14;100783.97;109355;1279;19193;-78
2021/12/26 08:08:17;;;;;;;;;14.00;12.00;;;;;20.92;48.96;100779.02;109253;1280;19613;-80
2021/12/26 08:10:43;;;;;;;;;13.00;12.50;;;;;20.90;48.72;100776.04;109293;1280;23038;-80
2021/12/26 08:13:09;;;;;;;;;10.00;10.00;;;;;20.89;48.60;100775.98;109276;1279;19200;-78
2021/12/26 08:15:35;;;;;;;;;13.00;12.00;;;;;20.89;48.56;100777.61;109299;1280;19677;-80
2021/12/26 08:18:01;;;;;;;;;11.00;10.00;;;;;20.87;48.45;100776.91;109300;1280;20278;-79
2021/12/26 08:20:27;;;;;;;;;9.00;9.00;;;;;20.84;48.37;100769.96;109051;1269;325150;-79
2021/12/26 08:22:53;;;;;;;;;12.00;12.00;;;;;20.87;47.68;100770.50;109349;1279;21879;-79
2021/12/26 08:25:18;;;;;;;;;14.00;10.00;;;;;20.92;47.24;100771.61;109281;1279;22377;-79
2021/12/26 08:27:44;;;;;;;;;10.00;10.00;;;;;20.96;47.23;100772.61;109300;1279;19209;-80
2021/12/26 08:30:10;;;;;;;;;12.00;10.00;;;;;20.99;47.09;100771.87;109333;1280;19324;-77
2021/12/26 08:32:39;;;;;;;;;12.00;12.00;;;;;20.98;47.23;100774.54;109330;1279;20751;-79
2021/12/26 08:35:07;;;;;;;;;13.33;13.00;;;;;21.06;46.44;100783.60;109348;1280;22757;-79
2021/12/26 08:37:33;;;;;;;;;13.00;11.67;;;;;20.92;44.44;100783.98;109520;1280;19686;-78
2021/12/26 08:39:59;;;;;;;;;12.00;12.00;;;;;20.81;44.56;100789.43;110109;1280;20362;-79
2021/12/26 08:42:25;;;;;;;;;17.00;12.50;;;;;20.92;44.49;100786.85;109436;1280;19187;-77
2021/12/26 08:44:52;;;;;;;;;13.00;12.00;;;;;21.05;44.23;100786.93;109299;1280;23863;-78
2021/12/26 08:47:19;;;;;;;;;15.33;13.00;;;;;21.18;44.30;100787.69;109264;1280;22056;-79
2021/12/26 08:49:44;;;;;;;;;13.00;12.00;;;;;21.21;44.32;100786.55;109335;1280;19519;-78
2021/12/26 08:52:10;;;;;;;;;13.00;12.00;;;;;21.20;44.28;100789.45;109379;1280;19357;-79
2021/12/26 08:54:36;;;;;;;;;13.00;12.00;;;;;21.20;44.26;100785.64;109311;1280;20207;-79
2021/12/26 08:57:02;;;;;;;;;12.00;12.00;;;;;21.20;44.64;100787.44;109356;1279;19026;-78
2021/12/26 08:59:30;;;;;;;;;13.00;11.00;;;;;21.23;44.95;100788.20;109327;1280;19309;-79
2021/12/26 09:01:56;;;;;;;;;14.67;13.00;;;;;21.25;45.04;100796.48;109276;1280;21725;-79
2021/12/26 09:04:22;;;;;;;;;12.00;12.00;;;;;21.30;44.96;100796.98;109295;1279;19374;-79
2021/12/26 09:06:47;;;;;;;;;16.00;14.00;;;;;21.32;45.01;100803.15;109261;1280;19568;-78
2021/12/26 09:09:13;;;;;;;;;13.00;12.00;;;;;21.32;44.93;100799.80;109384;1280;23537;-80
2021/12/26 09:11:39;;;;;;;;;12.00;11.00;;;;;21.32;44.99;100799.84;109246;1280;20657;-79
2021/12/26 09:14:05;;;;;;;;;15.00;13.50;;;;;21.33;44.80;100799.59;109327;1279;19824;-79
2021/12/26 09:16:33;;;;;;;;;16.00;12.50;;;;;21.34;44.86;100803.73;109336;1279;20095;-79
2021/12/26 09:18:59;;;;;;;;;16.67;13.00;;;;;21.31;44.51;100799.39;109320;1280;22762;-79
2021/12/26 09:21:25;;;;;;;;;12.00;11.00;;;;;21.35;44.58;100801.19;109352;1280;19510;-79
2021/12/26 09:23:51;;;;;;;;;14.00;12.00;;;;;21.38;44.78;100797.13;109343;1280;20228;-80
2021/12/26 09:26:17;;;;;;;;;13.00;12.00;;;;;21.43;44.85;100796.44;109335;1280;19158;-79
2021/12/26 09:28:43;;;;;;;;;17.00;14.00;;;;;21.44;44.85;100803.70;109326;1280;20557;-79
2021/12/26 09:31:09;;;;;;;;;11.00;10.00;;;;;21.45;44.60;100809.11;109293;1280;21082;-80
2021/12/26 09:33:34;;;;;;;;;9.50;9.50;;;;;21.45;44.83;100811.45;109261;1279;19887;-79
2021/12/26 09:36:00;;;;;;;;;20.50;16.00;;;;;21.51;44.53;100813.80;109314;1280;23915;-78
2021/12/26 09:38:26;;;;;;;;;11.33;11.33;;;;;21.59;44.79;100817.42;109244;1280;22950;-74
2021/12/26 09:40:52;;;;;;;;;13.00;12.00;;;;;21.60;44.95;100814.23;109202;1280;23850;-75
2021/12/26 09:43:18;;;;;;;;;13.50;11.00;;;;;21.54;44.93;100814.10;109290;1280;19824;-74
2021/12/26 09:45:44;;;;;;;;;56.50;40.00;;;;;21.50;45.24;100813.30;109287;1279;20138;-74
2021/12/26 09:48:10;;;;;;;;;76.00;54.33;;;;;21.50;45.24;100812.86;109299;1279;20510;-74
2021/12/26 09:50:36;;;;;;;;;102.67;75.00;;;;;21.45;45.11;100813.09;109349;1279;22010;-74
2021/12/26 09:53:01;;;;;;;;;115.00;89.50;;;;;21.43;45.15;100813.83;109368;1279;20376;-73
2021/12/26 09:55:27;;;;;;;;;168.00;129.00;;;;;21.41;45.18;100816.13;109304;1280;19145;-80
2021/12/26 09:57:53;;;;;;;;;169.00;126.67;;;;;21.40;45.19;100809.67;109271;1278;22898;-74
2021/12/26 10:00:19;;;;;;;;;182.00;141.67;;;;;21.43;45.56;100810.63;109299;1280;20757;-71
2021/12/26 10:02:45;;;;;;;;;142.00;111.00;;;;;21.43;45.41;100817.27;109378;1280;19284;-73
2021/12/26 10:05:11;;;;;;;;;131.00;102.67;;;;;21.25;43.55;100822.29;109336;1279;19562;-73
2021/12/26 10:07:37;;;;;;;;;115.00;91.00;;;;;20.99;41.65;100827.30;109352;1279;20263;-75
2021/12/26 10:10:02;;;;;;;;;100.33;76.33;;;;;20.79;40.85;100837.58;109284;1280;23820;-71
2021/12/26 10:12:28;;;;;;;;;94.67;68.00;;;;;20.63;40.13;100834.18;109306;1279;21501;-74
2021/12/26 10:14:54;;;;;;;;;86.00;64.00;;;;;20.51;39.25;100839.61;109298;1280;20776;-74
2021/12/26 10:17:23;;;;;;;;;79.33;59.00;;;;;20.42;38.80;100836.00;109238;1280;20621;-75
2021/12/26 10:19:49;;;;;;;;;65.33;53.00;;;;;19.71;34.87;100830.70;109276;1279;20353;-77
2021/12/26 10:22:15;;;;;;;;;68.00;52.00;;;;;18.21;32.32;100833.09;109312;1279;20088;-74
2021/12/26 10:24:41;;;;;;;;;66.67;49.00;;;;;18.18;33.20;100835.70;109274;1280;21122;-72
2021/12/26 10:27:07;;;;;;;;;59.00;47.00;;;;;19.03;33.56;100834.66;109268;1279;20039;-74
2021/12/26 10:29:34;;;;;;;;;57.50;46.50;;;;;19.67;34.05;100840.05;109359;1280;20112;-75
2021/12/26 10:32:00;;;;;;;;;62.33;47.67;;;;;20.02;34.52;100839.30;109329;1279;19362;-76
2021/12/26 10:34:25;;;;;;;;;63.00;45.00;;;;;20.26;34.93;100838.63;109261;1280;19426;-76
2021/12/26 10:36:52;;;;;;;;;52.00;44.00;;;;;20.39;35.68;100838.41;109332;1280;23885;-73
2021/12/26 10:39:18;;;;;;;;;56.33;46.33;;;;;20.51;36.21;100836.59;109336;1280;23711;-75
2021/12/26 10:41:44;;;;;;;;;44.50;38.50;;;;;20.55;36.84;100833.20;109321;1280;22988;-76
2021/12/26 10:44:10;;;;;;;;;59.50;44.50;;;;;20.52;37.47;100832.30;109364;1280;20161;-76
2021/12/26 10:46:37;;;;;;;;;52.00;42.00;;;;;20.56;37.99;100830.96;109357;1280;22325;-75
2021/12/26 10:49:03;;;;;;;;;54.00;42.00;;;;;20.58;38.36;100828.88;109290;1280;21256;-76
2021/12/26 10:51:29;;;;;;;;;45.50;39.00;;;;;20.64;38.72;100832.20;109252;1279;20583;-75
2021/12/26 10:53:54;;;;;;;;;44.50;41.00;;;;;20.70;39.00;100832.46;109315;1279;21205;-76
2021/12/26 10:56:21;;;;;;;;;48.50;38.00;;;;;20.74;39.10;100833.81;109275;1279;23192;-76